createdAt,value
2019-02-05T00:02:43.815Z,99149.81
2019-02-05T00:25:35.378Z,99109.63
2019-02-05T00:38:14.790Z,99124.83
2019-02-05T00:40:44.991Z,99125.41
2019-02-05T00:43:15.083Z,99132.55
2019-02-05T00:45:44.980Z,99120.34
2019-02-05T00:59:44.485Z,99129.34
2019-02-05T01:12:36.749Z,99134.69
2019-02-05T01:15:08.535Z,99124.97
2019-02-05T01:17:39.253Z,99115.83
2019-02-05T01:20:12.999Z,99127.52
2019-02-05T01:22:42.983Z,99117.89
2019-02-05T01:29:04.168Z,99107.99
2019-02-05T01:31:34.402Z,99116.40
2019-02-05T01:40:46.237Z,99115.67
2019-02-05T01:43:16.141Z,99118.78
2019-02-05T01:45:46.037Z,99116.64
2019-02-05T01:48:15.923Z,99115.17
2019-02-05T01:50:46.138Z,99114.57
2019-02-05T01:53:16.367Z,99116.49
2019-02-05T01:55:46.556Z,99109.03
2019-02-05T01:58:16.596Z,99104.20
2019-02-05T02:00:46.794Z,99102.48
2019-02-05T02:03:16.695Z,99106.61
2019-02-05T02:05:46.914Z,99093.71
2019-02-05T02:08:17.182Z,99090.00
2019-02-05T02:10:47.595Z,99084.50
2019-02-05T02:13:17.886Z,99084.88
2019-02-05T02:15:48.078Z,99087.27
2019-02-05T02:18:17.982Z,99078.56
2019-02-05T02:20:47.877Z,99074.55
2019-02-05T02:23:17.749Z,99068.17
2019-02-05T02:25:47.729Z,99070.72
2019-02-05T02:28:19.718Z,99063.42
2019-02-05T02:30:49.979Z,99067.56
2019-02-05T02:33:20.150Z,99071.71
2019-02-05T02:35:50.027Z,99072.25
2019-02-05T02:38:19.991Z,99078.72
2019-02-05T02:40:50.039Z,99080.92
2019-02-05T02:43:19.996Z,99074.31
2019-02-05T02:45:49.911Z,99070.48
2019-02-05T02:48:20.007Z,99066.92
2019-02-05T02:50:49.905Z,99062.53
2019-02-05T02:53:19.781Z,99060.61
2019-02-05T02:55:49.796Z,99061.98
2019-02-05T02:58:19.981Z,99055.09
2019-02-05T03:00:50.582Z,99051.72
2019-02-05T03:03:20.468Z,99056.58
2019-02-05T03:05:50.385Z,99045.77
2019-02-05T03:08:20.340Z,99043.25
2019-02-05T03:10:50.234Z,99031.81
2019-02-05T03:13:20.435Z,99028.51
2019-02-05T03:15:50.487Z,99024.02
2019-02-05T03:18:20.627Z,99034.41
2019-02-05T03:27:18.266Z,99041.06
2019-02-05T03:37:39.190Z,99054.31
2019-02-05T03:40:59.586Z,99049.13
2019-02-05T04:01:04.796Z,99061.31
2019-02-05T04:04:35.000Z,99064.91
2019-02-05T04:12:15.169Z,99076.48
2019-02-05T04:16:00.551Z,99074.35
2019-02-05T04:19:14.886Z,99085.16
2019-02-05T04:22:30.918Z,99076.73
2019-02-05T04:25:45.000Z,99068.96
2019-02-05T04:29:03.018Z,99074.99
2019-02-05T04:32:15.116Z,99085.54
2019-02-05T04:35:29.583Z,99082.74
2019-02-05T04:38:21.675Z,99091.12
2019-02-05T04:42:15.628Z,99080.81
2019-02-05T04:45:16.832Z,99082.30
2019-02-05T04:49:10.801Z,99094.09
2019-02-05T04:52:16.916Z,99092.25
2019-02-05T04:55:48.998Z,99086.09
2019-02-05T04:59:08.599Z,99088.14
2019-02-05T05:02:00.928Z,99104.44
2019-02-05T05:05:25.548Z,99099.87
2019-02-05T05:09:00.807Z,99092.81
2019-02-05T05:11:31.435Z,99091.31
2019-02-05T05:14:01.818Z,99107.80
2019-02-05T05:16:31.971Z,99102.86
2019-02-05T05:19:02.277Z,99102.53
2019-02-05T05:21:33.338Z,99106.41
2019-02-05T05:24:04.978Z,99108.64
2019-02-05T05:26:35.312Z,99115.70
2019-02-05T05:29:06.394Z,99122.27
2019-02-05T05:31:36.466Z,99120.19
2019-02-05T05:34:06.563Z,99114.88
2019-02-05T05:36:36.647Z,99113.80
2019-02-05T05:39:09.670Z,99118.59
2019-02-05T05:45:14.711Z,99112.03
2019-02-05T05:47:44.773Z,99120.91
2019-02-05T05:50:16.359Z,99132.39
2019-02-05T05:52:46.421Z,99141.40
2019-02-05T05:55:16.605Z,99133.48
2019-02-05T05:57:49.703Z,99134.56
2019-02-05T06:00:20.889Z,99128.84
2019-02-05T06:02:51.094Z,99126.28
2019-02-05T06:05:21.483Z,99142.86
2019-02-05T06:07:51.956Z,99148.77
2019-02-05T06:14:13.360Z,99132.33
2019-02-05T06:16:43.791Z,99137.13
2019-02-05T06:23:36.559Z,99144.73
2019-02-05T06:26:06.664Z,99147.28
2019-02-05T06:28:37.082Z,99160.53
2019-02-05T06:31:07.455Z,99168.30
2019-02-05T06:33:37.687Z,99167.55
2019-02-05T06:52:28.367Z,99184.09
2019-02-05T07:10:18.029Z,99198.64
2019-02-05T07:12:48.886Z,99202.00
2019-02-05T07:15:19.212Z,99204.14
2019-02-05T07:21:33.601Z,99213.59
2019-02-05T07:36:34.325Z,99227.38
2019-02-05T07:39:07.570Z,99222.11
2019-02-05T07:41:37.603Z,99222.34
2019-02-05T07:44:08.076Z,99228.12
2019-02-05T07:46:38.121Z,99227.30
2019-02-05T07:49:08.095Z,99227.38
2019-02-05T07:57:58.444Z,99235.33
2019-02-05T08:00:29.309Z,99240.89
2019-02-05T08:02:59.470Z,99236.71
2019-02-05T08:05:31.796Z,99239.72
2019-02-05T08:11:52.820Z,99239.44
2019-02-05T08:14:23.724Z,99248.94
2019-02-05T08:16:53.919Z,99235.23
2019-02-05T08:19:23.897Z,99231.74
2019-02-05T08:21:53.831Z,99236.55
2019-02-05T08:43:25.209Z,99231.05
2019-02-05T08:45:56.910Z,99229.45
2019-02-05T08:51:41.965Z,99229.15
2019-02-05T08:54:11.989Z,99237.81
2019-02-05T08:56:42.252Z,99234.28
2019-02-05T08:59:12.337Z,99228.48
2019-02-05T09:13:11.465Z,99257.86
2019-02-05T09:15:41.564Z,99251.55
2019-02-05T09:18:12.041Z,99257.09
2019-02-05T09:20:42.168Z,99256.71
2019-02-05T09:23:14.374Z,99262.63
2019-02-05T09:25:43.934Z,99264.20
2019-02-05T09:32:07.136Z,99251.97
2019-02-05T09:34:37.218Z,99252.67
2019-02-05T09:37:07.917Z,99258.80
2019-02-05T09:39:37.878Z,99260.86
2019-02-05T09:45:59.173Z,99264.85
2019-02-05T09:48:29.291Z,99258.70
2019-02-05T09:50:59.779Z,99253.69
2019-02-05T09:53:30.252Z,99261.92
2019-02-05T09:56:01.116Z,99261.75
2019-02-05T09:58:31.054Z,99261.79
2019-02-05T10:04:52.835Z,99261.37
2019-02-05T10:07:22.767Z,99273.83
2019-02-05T10:09:53.553Z,99271.42
2019-02-05T10:12:23.724Z,99274.30
2019-02-05T10:14:53.961Z,99279.03
2019-02-05T10:17:24.393Z,99280.30
2019-02-05T10:19:54.638Z,99291.41
2019-02-05T10:22:24.907Z,99290.14
2019-02-05T10:24:55.190Z,99288.16
2019-02-05T10:27:25.197Z,99281.30
2019-02-05T10:33:54.833Z,99277.23
2019-02-05T10:36:18.738Z,99272.92
2019-02-05T10:45:37.070Z,99264.78
2019-02-05T10:48:09.660Z,99265.84
2019-02-05T10:50:39.817Z,99263.34
2019-02-05T11:04:20.000Z,99238.16
2019-02-05T11:24:41.227Z,99238.21
2019-02-05T11:27:11.267Z,99238.96
2019-02-05T11:33:42.735Z,99231.78
2019-02-05T11:36:12.749Z,99226.76
2019-02-05T11:38:42.814Z,99225.81
2019-02-05T11:41:13.765Z,99231.77
2019-02-05T12:07:00.092Z,99227.42
2019-02-05T12:19:58.883Z,99216.34
2019-02-05T12:22:29.548Z,99213.95
2019-02-05T12:24:59.543Z,99208.25
2019-02-05T12:27:30.065Z,99217.50
2019-02-05T12:30:00.691Z,99212.03
2019-02-05T12:32:31.463Z,99208.12
2019-02-05T12:35:03.592Z,99206.76
2019-02-05T12:37:33.584Z,99203.31
2019-02-05T12:40:03.556Z,99206.63
2019-02-05T12:42:33.959Z,99209.37
2019-02-05T12:45:06.084Z,99209.37
2019-02-05T12:47:36.706Z,99206.86
2019-02-05T12:50:11.609Z,99203.31
2019-02-05T12:52:41.884Z,99205.27
2019-02-05T12:55:14.846Z,99199.89
2019-02-05T12:57:43.829Z,99200.09
2019-02-05T13:04:05.602Z,99201.35
2019-02-05T13:06:36.553Z,99194.27
2019-02-05T13:09:09.607Z,99191.70
2019-02-05T13:11:40.115Z,99189.31
2019-02-05T13:14:10.050Z,99183.37
2019-02-05T13:16:39.979Z,99177.63
2019-02-05T13:23:01.643Z,99175.09
2019-02-05T13:25:31.755Z,99172.95
2019-02-05T13:35:00.609Z,99166.61
2019-02-05T13:37:30.860Z,99172.13
2019-02-05T13:46:30.372Z,99163.46
2019-02-05T13:56:52.070Z,99167.88
2019-02-05T15:02:11.860Z,99159.91
2019-02-05T15:04:41.935Z,99164.53
2019-02-05T15:07:11.933Z,99162.37
2019-02-05T15:09:42.235Z,99163.63
2019-02-05T15:12:12.175Z,99163.43
2019-02-05T15:18:34.113Z,99162.53
2019-02-05T15:21:04.274Z,99165.42
2019-02-05T15:23:34.522Z,99169.30
2019-02-05T15:26:04.699Z,99153.48
2019-02-05T15:28:34.644Z,99161.28
2019-02-05T15:34:56.242Z,99165.20
2019-02-05T15:47:56.242Z,99155.45
2019-02-05T15:57:04.065Z,99154.73
2019-02-05T16:07:14.399Z,99148.88
2019-02-05T16:09:44.916Z,99151.37
2019-02-05T16:18:53.325Z,99154.42
2019-02-05T16:21:23.440Z,99153.08
2019-02-05T16:23:54.019Z,99151.69
2019-02-05T16:26:24.115Z,99150.39
2019-02-05T16:28:54.146Z,99146.57
2019-02-05T16:31:27.867Z,99154.84
2019-02-05T16:33:57.910Z,99155.84
2019-02-05T16:36:28.013Z,99156.66
2019-02-05T16:38:58.188Z,99161.45
2019-02-05T16:41:28.160Z,99162.23
2019-02-05T16:43:58.419Z,99163.91
2019-02-05T16:46:28.349Z,99166.03
2019-02-05T16:48:58.363Z,99166.41
2019-02-05T16:51:28.581Z,99182.30
2019-02-05T16:54:01.668Z,99178.09
2019-02-05T16:56:31.608Z,99183.29
2019-02-05T16:59:01.789Z,99186.25
2019-02-05T17:01:32.096Z,99186.13
2019-02-05T17:04:02.069Z,99185.16
2019-02-05T17:10:23.296Z,99187.38
2019-02-05T17:23:02.224Z,99191.06
2019-02-05T17:43:34.178Z,99183.85
2019-02-05T17:46:05.859Z,99189.01
2019-02-05T17:48:36.413Z,99192.25
2019-02-05T17:51:07.416Z,99189.81
2019-02-05T17:53:38.025Z,99193.21
2019-02-05T17:56:08.597Z,99195.64
2019-02-05T18:10:08.582Z,99199.97
2019-02-05T18:12:40.111Z,99200.20
2019-02-05T18:15:18.768Z,99200.91
2019-02-05T18:17:49.588Z,99205.28
2019-02-05T18:20:20.494Z,99202.06
2019-02-05T18:44:06.092Z,99224.80
2019-02-05T18:46:36.944Z,99221.92
2019-02-05T19:05:14.964Z,99223.09
2019-02-05T19:25:54.793Z,99228.42
2019-02-05T19:28:31.304Z,99230.66
2019-02-05T19:45:37.518Z,99241.09
2019-02-05T20:01:18.406Z,99234.34
2019-02-05T20:03:48.481Z,99236.12
2019-02-05T20:06:19.617Z,99236.92
2019-02-05T20:08:51.087Z,99236.19
2019-02-05T20:11:22.557Z,99240.31
2019-02-05T20:17:44.663Z,99239.12
2019-02-05T20:20:16.398Z,99229.82
2019-02-05T20:22:47.412Z,99230.25
2019-02-05T20:25:19.158Z,99228.71
2019-02-05T20:27:50.381Z,99221.17
2019-02-05T20:30:21.255Z,99232.09
2019-02-05T20:32:52.774Z,99234.62
2019-02-05T20:35:24.180Z,99227.09
2019-02-05T20:37:55.298Z,99231.19
2019-02-05T20:40:26.172Z,99226.58
2019-02-05T20:42:57.021Z,99218.23
2019-02-05T20:45:28.273Z,99220.98
2019-02-05T20:47:59.217Z,99217.66
2019-02-05T20:50:30.552Z,99225.64
2019-02-05T20:53:13.043Z,99224.66
2019-02-05T20:55:34.550Z,99225.34
2019-02-05T20:58:06.676Z,99222.53
2019-02-05T21:00:37.860Z,99226.02
2019-02-05T21:03:08.473Z,99226.22
2019-02-05T21:12:18.859Z,99222.77
2019-02-05T21:14:49.032Z,99222.55
2019-02-05T21:17:19.735Z,99226.51
2019-02-05T21:19:49.975Z,99222.48
2019-02-05T21:22:20.079Z,99222.92
2019-02-05T21:24:50.467Z,99227.52
2019-02-05T21:34:14.848Z,99237.43
2019-02-05T21:36:34.566Z,99237.47
2019-02-05T21:39:09.527Z,99248.06
2019-02-05T21:41:39.605Z,99252.55
2019-02-05T21:48:38.351Z,99259.38
2019-02-05T21:51:08.674Z,99265.14
2019-02-05T21:53:39.119Z,99261.81
2019-02-05T21:56:09.234Z,99263.34
2019-02-05T22:10:09.725Z,99262.58
2019-02-05T22:12:39.998Z,99260.62
2019-02-05T22:15:11.905Z,99258.93
2019-02-05T22:17:42.346Z,99261.12
2019-02-05T22:20:16.299Z,99254.31
2019-02-05T22:26:37.205Z,99258.42
2019-02-05T22:29:07.676Z,99250.30
2019-02-05T22:31:38.148Z,99249.25
2019-02-05T22:34:08.445Z,99243.41
2019-02-05T22:36:38.986Z,99244.92
2019-02-05T22:39:10.377Z,99235.86
2019-02-05T22:45:32.464Z,99239.78
2019-02-05T22:48:02.858Z,99239.28
2019-02-05T22:50:33.991Z,99233.38
2019-02-05T22:53:05.325Z,99232.80
2019-02-05T22:55:36.348Z,99227.97
2019-02-05T22:58:07.294Z,99222.57
2019-02-05T23:01:30.910Z,99224.37
2019-02-05T23:04:52.970Z,99220.13
2019-02-05T23:07:26.382Z,99217.25
2019-02-05T23:10:42.184Z,99222.08
2019-02-05T23:13:16.547Z,99215.20
2019-02-05T23:15:49.349Z,99220.77
2019-02-05T23:18:19.785Z,99212.41
2019-02-05T23:24:22.388Z,99213.62
2019-02-05T23:26:53.569Z,99208.06
2019-02-05T23:29:23.823Z,99203.31
2019-02-05T23:31:53.988Z,99197.91
2019-02-05T23:34:24.363Z,99193.86
2019-02-05T23:36:54.363Z,99196.45
2019-02-05T23:39:25.007Z,99192.47
2019-02-05T23:41:55.642Z,99197.56
2019-02-05T23:44:25.759Z,99192.33
2019-02-05T23:46:56.066Z,99187.30
2019-02-05T23:49:26.297Z,99190.42
2019-02-05T23:55:41.115Z,99183.27
2019-02-05T23:58:11.113Z,99177.00
